< < Back
Terminal Aerodrome Forecast


Current Version              Previous Versions:   1  2  3  4  5  6  7  8  9  

Terminal Aerodrome Forecast

186
FTUS44 KHUN 221120
TAFHSV
TAF
KHSV 221120Z 2212/2312 VRB03KT P6SM FEW200
     FM221500 VRB04KT P6SM SCT050
     FM222000 20004KT P6SM VCTS SCT060CB BKN100
     FM230100 VRB02KT P6SM FEW060 SCT250=

Latest METAR

844
SAUS80 KWBC 231100 RRA
MTRHSV
METAR KHSV 231053Z 00000KT 10SM FEW060 BKN250 24/21 A3002 RMK AO2 SLP155
FIRST T02390211 $


USA.gov is the U.S. government's official web portal to all federal, state and local government web resources and services.